createdAt,value
2023-01-04T00:01:21.255Z,6.90
2023-01-04T00:03:48.733Z,6.90
2023-01-04T00:06:17.255Z,6.90
2023-01-04T00:08:44.427Z,6.90
2023-01-04T00:11:20.778Z,6.80
2023-01-04T00:13:49.666Z,6.90
2023-01-04T00:16:22.920Z,6.80
2023-01-04T00:18:51.297Z,6.80
2023-01-04T00:21:29.853Z,6.90
2023-01-04T00:23:59.205Z,6.80
2023-01-04T00:26:29.401Z,6.80
2023-01-04T00:28:59.839Z,6.80
2023-01-04T00:31:28.205Z,6.80
2023-01-04T00:33:57.223Z,6.90
2023-01-04T00:36:25.192Z,6.90
2023-01-04T00:39:09.934Z,6.90
2023-01-04T00:41:58.728Z,6.80
2023-01-04T00:44:27.087Z,6.80
2023-01-04T00:46:54.174Z,6.70
2023-01-04T00:49:21.392Z,6.70
2023-01-04T00:51:48.470Z,6.80
2023-01-04T00:54:16.016Z,6.80
2023-01-04T00:56:44.085Z,6.80
2023-01-04T00:59:13.575Z,6.80
2023-01-04T01:01:42.039Z,6.90
2023-01-04T01:04:12.654Z,6.90
2023-01-04T01:06:40.526Z,6.90
2023-01-04T01:09:08.484Z,6.90
2023-01-04T01:11:36.952Z,6.90
2023-01-04T01:14:04.339Z,6.90
2023-01-04T01:16:53.900Z,7.00
2023-01-04T01:19:18.889Z,6.90
2023-01-04T01:21:46.023Z,7.00
2023-01-04T01:24:18.706Z,7.00
2023-01-04T01:26:46.475Z,6.90
2023-01-04T01:29:14.063Z,7.00
2023-01-04T01:31:42.069Z,6.90
2023-01-04T01:34:09.851Z,6.90
2023-01-04T01:36:37.202Z,7.00
2023-01-04T01:39:06.093Z,6.90
2023-01-04T01:41:35.041Z,7.00
2023-01-04T01:44:07.022Z,6.90
2023-01-04T01:46:47.257Z,6.90
2023-01-04T01:49:37.579Z,6.80
2023-01-04T01:52:14.632Z,6.90
2023-01-04T01:54:55.071Z,6.80
2023-01-04T01:57:24.964Z,6.80
2023-01-04T01:59:54.707Z,6.80
2023-01-04T02:02:22.340Z,6.80
2023-01-04T02:04:51.808Z,6.80
2023-01-04T02:07:22.899Z,6.80
2023-01-04T02:09:51.211Z,6.80
2023-01-04T02:12:18.424Z,6.80
2023-01-04T02:14:48.959Z,6.80
2023-01-04T02:18:02.827Z,6.80
2023-01-04T02:20:45.295Z,6.80
2023-01-04T02:23:49.410Z,6.80
2023-01-04T02:27:17.881Z,6.80
2023-01-04T03:03:44.213Z,6.60
2023-01-04T03:06:43.751Z,6.60
2023-01-04T03:09:20.275Z,6.70
2023-01-04T03:12:20.649Z,6.70
2023-01-04T03:14:52.404Z,6.70
2023-01-04T03:17:22.900Z,6.70
2023-01-04T03:19:55.239Z,6.70
2023-01-04T03:23:05.149Z,6.70
2023-01-04T03:25:57.559Z,6.70
2023-01-04T03:28:49.859Z,6.70
2023-01-04T03:32:05.183Z,6.70
2023-01-04T03:34:51.036Z,6.70
2023-01-04T03:37:50.885Z,6.70
2023-01-04T03:40:45.314Z,6.70
2023-01-04T03:43:45.897Z,6.70
2023-01-04T03:47:01.410Z,6.70
2023-01-04T03:49:36.817Z,6.70
2023-01-04T03:52:06.106Z,6.70
2023-01-04T03:54:42.173Z,6.70
2023-01-04T03:57:10.968Z,6.70
2023-01-04T03:59:47.946Z,6.70
2023-01-04T04:02:19.610Z,6.70
2023-01-04T04:05:05.258Z,6.70
2023-01-04T04:07:50.949Z,6.70
2023-01-04T04:10:18.134Z,6.80
2023-01-04T04:12:45.189Z,6.80
2023-01-04T04:15:13.684Z,6.80
2023-01-04T04:17:40.867Z,6.80
2023-01-04T04:20:08.787Z,6.80
2023-01-04T04:22:35.855Z,6.80
2023-01-04T04:25:03.027Z,6.80
2023-01-04T04:27:30.229Z,6.80
2023-01-04T04:29:57.343Z,6.80
2023-01-04T04:32:24.695Z,6.80
2023-01-04T04:34:51.809Z,6.80
2023-01-04T04:37:18.913Z,6.80
2023-01-04T04:39:46.050Z,6.90
2023-01-04T04:42:13.136Z,6.90
2023-01-04T04:44:40.252Z,6.90
2023-01-04T04:47:07.401Z,6.90
2023-01-04T04:49:34.593Z,6.90
2023-01-04T04:52:01.659Z,6.80
2023-01-04T04:54:28.813Z,6.80
2023-01-04T04:56:55.904Z,6.90
2023-01-04T04:59:23.206Z,6.80
2023-01-04T05:01:50.415Z,6.80
2023-01-04T05:04:19.683Z,6.80
2023-01-04T05:06:48.591Z,6.80
2023-01-04T05:09:16.446Z,6.90
2023-01-04T05:12:02.227Z,6.80
2023-01-04T05:14:29.780Z,6.80
2023-01-04T05:16:57.059Z,6.80
2023-01-04T05:19:24.279Z,6.80
2023-01-04T05:21:51.394Z,6.80
2023-01-04T05:24:18.518Z,6.80
2023-01-04T05:26:45.555Z,6.80
2023-01-04T05:29:32.660Z,6.80
2023-01-04T05:31:59.839Z,6.80
2023-01-04T05:34:26.903Z,6.70
2023-01-04T05:36:54.068Z,6.70
2023-01-04T05:39:21.192Z,6.70
2023-01-04T05:42:07.079Z,6.60
2023-01-04T05:44:34.155Z,6.60
2023-01-04T05:47:01.275Z,6.60
2023-01-04T05:49:28.444Z,6.60
2023-01-04T05:51:55.521Z,6.70
2023-01-04T05:54:22.621Z,6.60
2023-01-04T05:56:49.778Z,6.70
2023-01-04T05:59:17.055Z,6.60
2023-01-04T06:01:44.236Z,6.60
2023-01-04T06:04:11.480Z,6.60
2023-01-04T06:06:38.625Z,6.60
2023-01-04T06:09:05.894Z,6.60
2023-01-04T06:11:33.081Z,6.60
2023-01-04T06:14:00.341Z,6.70
2023-01-04T06:16:27.481Z,6.70
2023-01-04T06:18:54.628Z,6.70
2023-01-04T06:21:21.876Z,6.70
2023-01-04T06:23:48.948Z,6.70
2023-01-04T06:26:16.024Z,6.70
2023-01-04T06:28:43.159Z,6.60
2023-01-04T06:31:11.428Z,6.60
2023-01-04T06:33:39.582Z,6.70
2023-01-04T06:36:07.356Z,6.70
2023-01-04T06:38:47.200Z,6.70
2023-01-04T06:41:14.314Z,6.70
2023-01-04T06:43:41.519Z,6.80
2023-01-04T06:46:08.776Z,6.80
2023-01-04T06:48:35.965Z,6.80
2023-01-04T06:51:03.027Z,6.80
2023-01-04T06:53:30.190Z,6.70
2023-01-04T06:55:57.802Z,6.70
2023-01-04T06:58:24.937Z,6.80
2023-01-04T07:00:53.107Z,6.70
2023-01-04T07:03:20.636Z,6.80
2023-01-04T07:05:47.961Z,6.80
2023-01-04T07:08:15.767Z,6.70
2023-01-04T07:10:42.929Z,6.70
2023-01-04T07:13:10.423Z,6.80
2023-01-04T07:15:40.646Z,6.80
2023-01-04T07:18:10.149Z,6.80
2023-01-04T07:20:40.205Z,6.80
2023-01-04T07:23:08.271Z,6.70
2023-01-04T07:25:35.740Z,6.80
2023-01-04T07:28:03.487Z,6.90
2023-01-04T07:30:30.741Z,6.90
2023-01-04T07:32:58.113Z,6.80
2023-01-04T07:35:25.754Z,6.80
2023-01-04T07:37:58.317Z,6.80
2023-01-04T07:40:26.373Z,6.80
2023-01-04T07:42:58.321Z,6.80
2023-01-04T07:45:26.924Z,6.80
2023-01-04T07:47:54.214Z,6.90
2023-01-04T07:50:21.375Z,6.90
2023-01-04T07:52:48.497Z,6.90
2023-01-04T07:55:15.684Z,6.90
2023-01-04T07:57:42.768Z,7.00
2023-01-04T08:00:11.922Z,7.00
2023-01-04T08:02:39.217Z,7.00
2023-01-04T08:05:06.880Z,7.00
2023-01-04T08:07:34.106Z,7.00
2023-01-04T08:10:01.771Z,7.10
2023-01-04T08:12:28.856Z,7.10
2023-01-04T08:14:56.017Z,7.20
2023-01-04T08:17:23.119Z,7.10
2023-01-04T08:19:50.301Z,7.10
2023-01-04T08:22:17.525Z,7.10
2023-01-04T08:24:44.672Z,7.20
2023-01-04T08:27:11.814Z,7.20
2023-01-04T08:29:39.015Z,7.20
2023-01-04T08:32:06.574Z,7.20
2023-01-04T08:34:33.878Z,7.20
2023-01-04T08:37:02.007Z,7.30
2023-01-04T08:39:33.400Z,7.40
2023-01-04T08:42:09.928Z,7.40
2023-01-04T08:44:42.038Z,7.40
2023-01-04T08:47:09.180Z,7.50
2023-01-04T08:49:36.384Z,7.40
2023-01-04T08:52:03.548Z,7.40
2023-01-04T08:54:30.688Z,7.40
2023-01-04T08:56:57.725Z,7.40
2023-01-04T08:59:24.821Z,7.40
2023-01-04T09:01:52.089Z,7.50
2023-01-04T09:04:19.479Z,7.50
2023-01-04T09:06:46.601Z,7.60
2023-01-04T09:09:14.430Z,7.50
2023-01-04T09:11:41.488Z,7.60
2023-01-04T09:14:10.759Z,7.60
2023-01-04T09:16:38.627Z,7.70
2023-01-04T09:19:06.802Z,7.70
2023-01-04T09:21:34.279Z,7.80
2023-01-04T09:24:01.664Z,7.70
2023-01-04T09:26:28.780Z,7.80
2023-01-04T09:28:56.842Z,7.80
2023-01-04T09:31:26.221Z,7.80
2023-01-04T09:36:40.749Z,7.90
2023-01-04T09:39:09.157Z,7.80
2023-01-04T09:41:45.923Z,7.80
2023-01-04T09:44:46.320Z,7.80
2023-01-04T09:47:54.995Z,7.90
2023-01-04T09:50:27.626Z,7.90
2023-01-04T09:53:15.384Z,7.90
2023-01-04T09:55:50.617Z,7.90
2023-01-04T09:58:40.473Z,8.00
2023-01-04T10:01:24.568Z,8.00
2023-01-04T10:04:25.127Z,8.00
2023-01-04T10:06:53.005Z,7.90
2023-01-04T10:09:20.840Z,8.00
2023-01-04T10:12:20.793Z,8.10
2023-01-04T10:15:05.008Z,8.00
2023-01-04T10:24:32.974Z,8.10
2023-01-04T10:27:12.250Z,8.10
2023-01-04T10:30:18.136Z,8.10
2023-01-04T10:32:50.826Z,8.20
2023-01-04T10:35:33.507Z,8.20
2023-01-04T10:38:04.247Z,8.20
2023-01-04T10:40:38.235Z,8.20
2023-01-04T10:44:13.936Z,8.20
2023-01-04T10:46:47.985Z,8.20
2023-01-04T10:49:28.192Z,8.20
2023-01-04T10:52:20.713Z,8.20
2023-01-04T10:55:19.255Z,8.20
2023-01-04T10:57:59.901Z,8.20
2023-01-04T11:00:34.986Z,8.20
2023-01-04T11:03:28.490Z,8.20
2023-01-04T11:06:15.650Z,8.30
2023-01-04T11:08:52.816Z,8.30
2023-01-04T11:11:30.335Z,8.30
2023-01-04T11:13:57.522Z,8.30
2023-01-04T11:16:24.661Z,8.30
2023-01-04T11:18:52.503Z,8.30
2023-01-04T11:21:26.482Z,8.30
2023-01-04T11:24:08.266Z,8.30
2023-01-04T11:26:48.494Z,8.30
2023-01-04T11:29:48.436Z,8.40
2023-01-04T11:32:48.525Z,8.40
2023-01-04T11:35:15.750Z,8.40
2023-01-04T11:37:43.156Z,8.40
2023-01-04T11:40:22.584Z,8.40
2023-01-04T11:43:10.466Z,8.40
2023-01-04T11:45:37.873Z,8.50
2023-01-04T11:48:12.339Z,8.40
2023-01-04T11:50:51.329Z,8.50
2023-01-04T11:53:34.133Z,8.50
2023-01-04T11:56:31.840Z,8.40
2023-01-04T11:59:25.153Z,8.40
2023-01-04T12:02:11.366Z,8.50
2023-01-04T12:04:38.676Z,8.50
2023-01-04T12:07:26.606Z,8.50
2023-01-04T12:09:54.017Z,8.50
2023-01-04T12:12:21.882Z,8.50
2023-01-04T12:14:49.971Z,8.50
2023-01-04T12:17:50.813Z,8.50
2023-01-04T12:20:20.607Z,8.50
2023-01-04T12:22:48.036Z,8.50
2023-01-04T12:25:46.368Z,8.60
2023-01-04T12:28:41.084Z,8.60
2023-01-04T12:31:40.230Z,8.60
2023-01-04T12:34:38.905Z,8.60
2023-01-04T12:37:06.600Z,8.70
2023-01-04T12:39:59.777Z,8.70
2023-01-04T12:42:27.349Z,8.60
2023-01-04T12:44:58.568Z,8.70
2023-01-04T12:48:10.927Z,8.70
2023-01-04T12:51:37.204Z,8.70
2023-01-04T12:54:24.128Z,8.80
2023-01-04T12:57:37.885Z,8.90
2023-01-04T13:00:11.977Z,8.90
2023-01-04T13:02:48.391Z,9.00
2023-01-04T13:08:25.324Z,9.10
2023-01-04T13:10:57.197Z,9.10
2023-01-04T13:13:58.181Z,9.10
2023-01-04T13:16:55.532Z,9.00
2023-01-04T13:19:25.321Z,9.10
2023-01-04T13:21:53.797Z,9.10
2023-01-04T13:24:43.059Z,9.00
2023-01-04T13:27:16.955Z,9.10
2023-01-04T13:29:44.479Z,9.10
2023-01-04T13:32:59.471Z,9.20
2023-01-04T13:35:24.013Z,9.20
2023-01-04T13:37:51.711Z,9.20
2023-01-04T13:40:36.189Z,9.20
2023-01-04T13:43:55.396Z,9.30
2023-01-04T13:46:24.447Z,9.30
2023-01-04T13:48:57.460Z,9.30
2023-01-04T13:51:38.094Z,9.40
2023-01-04T13:54:17.025Z,9.40
2023-01-04T13:56:46.171Z,9.40
2023-01-04T13:59:17.487Z,9.40
2023-01-04T14:01:46.918Z,9.40
2023-01-04T14:04:29.693Z,9.40
2023-01-04T14:07:00.191Z,9.40
2023-01-04T14:09:35.638Z,9.40
2023-01-04T14:12:13.729Z,9.50
2023-01-04T14:15:16.757Z,9.50
2023-01-04T14:17:55.233Z,9.50
2023-01-04T14:20:33.795Z,9.50
2023-01-04T14:23:00.928Z,9.60
2023-01-04T14:25:49.246Z,9.50
2023-01-04T14:31:31.697Z,9.40
2023-01-04T14:33:59.418Z,9.40
2023-01-04T14:36:32.653Z,9.40
2023-01-04T14:39:13.064Z,9.40
2023-01-04T14:41:54.854Z,9.40
2023-01-04T14:44:24.400Z,9.40
2023-01-04T14:46:56.934Z,9.40
2023-01-04T14:49:26.878Z,9.50
2023-01-04T14:51:56.793Z,9.40
2023-01-04T14:54:25.757Z,9.40
2023-01-04T14:56:54.725Z,9.40
2023-01-04T14:59:25.791Z,9.40
2023-01-04T15:01:54.465Z,9.40
2023-01-04T15:04:22.499Z,9.40
2023-01-04T15:06:52.940Z,9.50
2023-01-04T15:09:20.361Z,9.50
2023-01-04T15:11:47.489Z,9.50
2023-01-04T15:14:14.762Z,9.50
2023-01-04T15:16:42.021Z,9.50
2023-01-04T15:19:09.581Z,9.40
2023-01-04T15:21:40.825Z,9.40
2023-01-04T15:24:09.912Z,9.40
2023-01-04T15:26:38.092Z,9.40
2023-01-04T15:29:07.002Z,9.40
2023-01-04T15:31:38.948Z,9.40
2023-01-04T15:34:06.938Z,9.40
2023-01-04T15:36:38.523Z,9.40
2023-01-04T15:39:06.198Z,9.50
2023-01-04T15:41:51.977Z,9.40
2023-01-04T15:44:19.130Z,9.30
2023-01-04T15:46:46.739Z,9.40
2023-01-04T15:49:17.421Z,9.40
2023-01-04T15:51:45.496Z,9.30
2023-01-04T15:54:13.138Z,9.40
2023-01-04T15:56:40.380Z,9.40
2023-01-04T15:59:07.590Z,9.40
2023-01-04T16:01:34.787Z,9.40
2023-01-04T16:04:02.823Z,9.30
2023-01-04T16:06:29.977Z,9.30
2023-01-04T16:08:59.023Z,9.20
2023-01-04T16:11:26.473Z,9.30
2023-01-04T16:13:54.304Z,9.30
2023-01-04T16:16:23.847Z,9.30
2023-01-04T16:18:53.435Z,9.20
2023-01-04T16:21:26.040Z,9.20
2023-01-04T16:24:01.706Z,9.30
2023-01-04T16:26:32.589Z,9.50
2023-01-04T16:29:00.950Z,9.50
2023-01-04T16:31:33.515Z,9.40
2023-01-04T16:34:00.713Z,9.30
2023-01-04T16:36:27.926Z,9.40
2023-01-04T16:38:55.060Z,9.30
2023-01-04T16:41:22.356Z,9.30
2023-01-04T16:43:51.925Z,9.30
2023-01-04T16:46:22.516Z,9.30
2023-01-04T16:48:55.202Z,9.30
2023-01-04T16:51:23.983Z,9.20
2023-01-04T16:53:51.485Z,9.20
2023-01-04T16:56:20.572Z,9.20
2023-01-04T16:58:48.431Z,9.20
2023-01-04T17:01:28.020Z,9.20
2023-01-04T17:03:58.260Z,9.20
2023-01-04T17:06:31.297Z,9.20
2023-01-04T17:08:59.881Z,9.20
2023-01-04T17:14:16.662Z,9.20
2023-01-04T17:16:44.152Z,9.20
2023-01-04T17:19:11.361Z,9.30
2023-01-04T17:21:38.466Z,9.30
2023-01-04T17:24:05.932Z,9.20
2023-01-04T17:26:33.291Z,9.20
2023-01-04T17:29:01.517Z,9.40
2023-01-04T17:31:32.116Z,9.30
2023-01-04T17:33:59.406Z,9.30
2023-01-04T17:36:26.553Z,9.30
2023-01-04T17:38:53.788Z,9.40
2023-01-04T17:41:25.428Z,9.30
2023-01-04T17:43:56.387Z,9.30
2023-01-04T17:46:25.007Z,9.40
2023-01-04T17:49:10.587Z,9.40
2023-01-04T17:51:40.268Z,9.40
2023-01-04T17:54:08.565Z,9.40
2023-01-04T17:56:37.773Z,9.40
2023-01-04T17:59:08.768Z,9.30
2023-01-04T18:01:36.467Z,9.50
2023-01-04T18:04:04.174Z,9.40
2023-01-04T18:06:33.944Z,9.40
2023-01-04T18:09:02.894Z,9.40
2023-01-04T18:11:30.740Z,9.50
2023-01-04T18:13:58.355Z,9.40
2023-01-04T18:16:28.617Z,9.40
2023-01-04T18:18:57.998Z,9.40
2023-01-04T18:21:29.329Z,9.60
2023-01-04T18:24:35.373Z,9.50
2023-01-04T18:29:36.610Z,9.50
2023-01-04T18:32:04.179Z,9.50
2023-01-04T18:34:31.483Z,9.50
2023-01-04T18:36:58.541Z,9.50
2023-01-04T18:39:25.852Z,9.40
2023-01-04T18:41:52.954Z,9.40
2023-01-04T18:44:38.754Z,9.50
2023-01-04T18:47:08.626Z,9.40
2023-01-04T18:49:35.713Z,9.50
2023-01-04T18:52:03.342Z,9.50
2023-01-04T18:54:30.518Z,9.50
2023-01-04T18:57:01.011Z,9.50
2023-01-04T18:59:30.276Z,9.50
2023-01-04T19:02:01.523Z,9.40
2023-01-04T19:04:34.964Z,9.60
2023-01-04T19:07:02.863Z,9.50
2023-01-04T19:09:30.683Z,9.50
2023-01-04T19:11:57.823Z,9.50
2023-01-04T19:14:24.942Z,9.60
2023-01-04T19:16:53.388Z,9.60
2023-01-04T19:19:20.784Z,9.50
2023-01-04T19:21:48.378Z,9.60
2023-01-04T19:24:15.464Z,9.60
2023-01-04T19:26:42.763Z,9.70
2023-01-04T19:29:10.067Z,9.70
2023-01-04T19:31:37.316Z,9.70
2023-01-04T19:34:05.007Z,9.70
2023-01-04T19:36:32.213Z,9.80
2023-01-04T19:38:59.310Z,9.80
2023-01-04T19:41:33.744Z,9.80
2023-01-04T19:44:07.127Z,9.80
2023-01-04T19:46:37.684Z,9.80
2023-01-04T19:49:10.727Z,9.80
2023-01-04T19:51:44.013Z,9.80
2023-01-04T19:54:11.523Z,9.80
2023-01-04T19:56:38.673Z,9.80
2023-01-04T19:59:06.901Z,9.80
2023-01-04T20:01:34.283Z,9.90
2023-01-04T20:04:01.795Z,9.90
2023-01-04T20:06:28.949Z,9.90
2023-01-04T20:08:56.011Z,9.90
2023-01-04T20:11:23.489Z,9.90
2023-01-04T20:13:50.635Z,9.80
2023-01-04T20:16:17.815Z,9.90
2023-01-04T20:18:45.063Z,10.00
2023-01-04T20:21:13.941Z,10.00
2023-01-04T20:23:41.454Z,10.00
2023-01-04T20:26:19.604Z,10.10
2023-01-04T20:28:46.912Z,10.10
2023-01-04T20:31:16.896Z,10.10
2023-01-04T20:33:44.944Z,10.00
2023-01-04T20:36:15.739Z,10.10
2023-01-04T20:38:44.665Z,10.20
2023-01-04T20:41:18.019Z,10.40
2023-01-04T20:43:46.724Z,10.20
2023-01-04T20:46:20.149Z,10.20
2023-01-04T20:48:47.528Z,10.30
2023-01-04T20:51:32.818Z,10.50
2023-01-04T20:54:00.307Z,10.50
2023-01-04T20:56:30.004Z,10.70
2023-01-04T20:58:57.356Z,10.70
2023-01-04T21:01:25.553Z,10.60
2023-01-04T21:03:52.923Z,10.70
2023-01-04T21:08:13.560Z,10.70
2023-01-04T21:10:43.010Z,10.60
2023-01-04T21:13:11.649Z,10.60
2023-01-04T21:15:39.859Z,10.60
2023-01-04T21:20:15.537Z,10.50
2023-01-04T21:22:44.707Z,10.40
2023-01-04T21:25:11.840Z,10.30
2023-01-04T21:27:38.985Z,10.30
2023-01-04T21:30:06.746Z,10.30
2023-01-04T21:32:33.970Z,10.30
2023-01-04T21:35:01.041Z,10.20
2023-01-04T21:37:29.533Z,10.10
2023-01-04T21:39:56.588Z,10.00
2023-01-04T21:42:23.722Z,10.00
2023-01-04T21:44:51.164Z,10.00
2023-01-04T21:47:18.305Z,10.00
2023-01-04T21:49:45.941Z,9.90
2023-01-04T21:52:13.203Z,9.80
2023-01-04T21:54:46.012Z,9.80
2023-01-04T21:57:13.274Z,9.70
2023-01-04T21:59:40.483Z,9.80
2023-01-04T22:02:07.760Z,9.80
2023-01-04T22:04:35.030Z,9.80
2023-01-04T22:07:02.252Z,9.90
2023-01-04T22:09:29.326Z,9.80
2023-01-04T22:11:56.529Z,9.80
2023-01-04T22:14:23.628Z,9.90
2023-01-04T22:16:50.751Z,9.90
2023-01-04T22:19:17.931Z,10.00
2023-01-04T22:21:45.022Z,9.90
2023-01-04T22:24:13.476Z,10.10
2023-01-04T22:26:42.172Z,10.00
2023-01-04T22:29:10.165Z,10.10
2023-01-04T22:31:37.469Z,10.10
2023-01-04T22:34:04.613Z,10.10
2023-01-04T22:36:31.741Z,10.10
2023-01-04T22:38:58.883Z,10.10
2023-01-04T22:41:27.826Z,10.20
2023-01-04T22:44:03.619Z,10.10
2023-01-04T22:46:32.737Z,10.10
2023-01-04T22:49:00.862Z,10.00
2023-01-04T22:51:30.802Z,10.00
2023-01-04T22:54:01.400Z,10.10
2023-01-04T22:56:29.331Z,10.10
2023-01-04T22:58:57.765Z,10.00
2023-01-04T23:01:31.007Z,10.00
2023-01-04T23:03:59.812Z,10.00
2023-01-04T23:06:28.125Z,10.10
2023-01-04T23:09:00.373Z,10.10
2023-01-04T23:11:28.916Z,10.10
2023-01-04T23:13:56.412Z,10.10
2023-01-04T23:16:31.453Z,10.10
2023-01-04T23:19:00.448Z,10.10
2023-01-04T23:21:27.663Z,10.10
2023-01-04T23:23:54.994Z,10.10
2023-01-04T23:26:24.024Z,10.10
2023-01-04T23:28:51.685Z,10.10
2023-01-04T23:31:21.677Z,10.10
2023-01-04T23:33:54.147Z,10.20
2023-01-04T23:36:24.920Z,10.10
2023-01-04T23:38:54.291Z,10.10
2023-01-04T23:41:42.557Z,10.20
2023-01-04T23:44:27.411Z,10.30
2023-01-04T23:47:07.656Z,10.30
2023-01-04T23:49:36.689Z,10.30
2023-01-04T23:52:04.646Z,10.20
2023-01-04T23:54:31.845Z,10.30
2023-01-04T23:57:00.397Z,10.20
2023-01-04T23:59:28.651Z,10.10
